Time;durP1;ratioP1;P1;durP2;ratioP2;P2;SDS_P1;SDS_P2;PMS_P1;PMS_P2;Temp;Humidity;BMP_temperature;BMP_pressure;BME280_temperature;BME280_humidity;BME280_pressure;Samples;Min_cycle;Max_cycle;Signal;HPM_P1;HPM_P2
2022/12/08 00:01:21;;;;;;;;;;;2.00;99.90;;;;;;5030548;28;19920;-76
2022/12/08 00:03:46;;;;;;;;;;;1.50;99.90;;;;;;5059235;28;19921;-77
2022/12/08 00:09:21;;;;;;;;;;;2.30;99.90;;;;;;5047900;28;20003;-76
2022/12/08 00:11:54;;;;;;;;;;;1.50;99.90;;;;;;5034905;28;19931;-76
2022/12/08 00:14:21;;;;;;;;;;;1.50;99.90;;;;;;5044991;28;20357;-76
2022/12/08 00:16:47;;;;;;;;;;;1.60;99.90;;;;;;5053237;28;19921;-77
2022/12/08 00:19:12;;;;;;;;;;;1.60;99.90;;;;;;5052292;28;20401;-76
2022/12/08 00:21:38;;;;;;;;;;;1.60;99.90;;;;;;5055573;28;20456;-76
2022/12/08 00:24:04;;;;;;;;;;;1.70;99.90;;;;;;5039984;28;19924;-76
2022/12/08 00:26:29;;;;;;;;;;;1.70;99.90;;;;;;5053241;28;19932;-76
2022/12/08 00:28:55;;;;;;;;;;;2.00;99.90;;;;;;5051607;28;19966;-76
2022/12/08 00:31:20;;;;;;;;;;;1.90;99.90;;;;;;5040340;28;19950;-77
2022/12/08 00:33:46;;;;;;;;;;;1.80;99.90;;;;;;5022536;28;19972;-77
2022/12/08 00:36:12;;;;;;;;;;;2.60;99.90;;;;;;5049034;28;19924;-76
2022/12/08 00:38:39;;;;;;;;;;;1.70;99.90;;;;;;5056596;28;19984;-77
2022/12/08 00:41:11;;;;;;;;;;;1.70;99.90;;;;;;5053480;28;19921;-76
2022/12/08 00:43:37;;;;;;;;;;;1.60;99.90;;;;;;5043665;28;19921;-76
2022/12/08 00:46:03;;;;;;;;;;;1.60;99.90;;;;;;5051646;28;20437;-76
2022/12/08 00:48:28;;;;;;;;;;;1.50;99.90;;;;;;5052476;28;20428;-76
2022/12/08 00:50:54;;;;;;;;;;;1.50;99.90;;;;;;5033540;28;19933;-75
2022/12/08 00:53:19;;;;;;;;;;;1.50;99.90;;;;;;5017982;28;19924;-76
2022/12/08 00:55:45;;;;;;;;;;;1.40;99.90;;;;;;5036622;28;19956;-76
2022/12/08 00:58:10;;;;;;;;;;;1.40;99.90;;;;;;5036440;28;19929;-76
2022/12/08 01:00:38;;;;;;;;;;;1.40;99.90;;;;;;5049811;28;19967;-76
2022/12/08 01:03:04;;;;;;;;;;;1.40;99.90;;;;;;5046453;28;19964;-76
2022/12/08 01:05:29;;;;;;;;;;;2.70;99.90;;;;;;5017795;28;19960;-76
2022/12/08 01:07:55;;;;;;;;;;;1.40;99.90;;;;;;5042745;28;19921;-76
2022/12/08 01:10:20;;;;;;;;;;;1.40;99.90;;;;;;5018402;28;19925;-77
2022/12/08 01:12:46;;;;;;;;;;;1.30;99.90;;;;;;5052607;28;19921;-77
2022/12/08 01:15:11;;;;;;;;;;;1.30;99.90;;;;;;5036964;28;19946;-76
2022/12/08 01:17:37;;;;;;;;;;;1.30;99.90;;;;;;5035954;28;19929;-76
2022/12/08 01:20:03;;;;;;;;;;;1.30;99.90;;;;;;5034824;28;20014;-77
2022/12/08 01:22:29;;;;;;;;;;;1.30;99.90;;;;;;5052988;28;19952;-76
2022/12/08 01:24:54;;;;;;;;;;;1.30;99.90;;;;;;5041538;28;20390;-77
2022/12/08 01:27:20;;;;;;;;;;;1.20;99.90;;;;;;5053231;28;19935;-76
2022/12/08 01:29:45;;;;;;;;;;;1.30;99.90;;;;;;5035416;28;19975;-76
2022/12/08 01:32:11;;;;;;;;;;;1.70;99.90;;;;;;5019150;28;19927;-76
2022/12/08 01:34:37;;;;;;;;;;;1.30;99.90;;;;;;5050409;28;19943;-76
2022/12/08 01:37:02;;;;;;;;;;;1.30;99.90;;;;;;5052115;28;19928;-77
2022/12/08 01:39:28;;;;;;;;;;;1.30;99.90;;;;;;5053196;28;19927;-77
2022/12/08 01:41:54;;;;;;;;;;;1.90;99.90;;;;;;5048850;28;20534;-77
2022/12/08 01:44:19;;;;;;;;;;;1.30;99.90;;;;;;5055209;28;19974;-76
2022/12/08 01:46:48;;;;;;;;;;;2.30;99.90;;;;;;5055706;28;20672;-77
2022/12/08 01:49:23;;;;;;;;;;;2.00;99.90;;;;;;5054003;28;19936;-77
2022/12/08 01:51:54;;;;;;;;;;;1.30;99.90;;;;;;5048923;28;20438;-76
2022/12/08 01:54:20;;;;;;;;;;;1.30;99.90;;;;;;5034694;28;19920;-76
2022/12/08 01:56:59;;;;;;;;;;;1.90;99.90;;;;;;5037621;28;21742;-76
2022/12/08 01:59:25;;;;;;;;;;;1.20;99.90;;;;;;5050318;28;19920;-76
2022/12/08 02:01:51;;;;;;;;;;;1.20;99.90;;;;;;5050526;28;19969;-76
2022/12/08 02:04:16;;;;;;;;;;;1.10;99.90;;;;;;5056033;28;19920;-75
2022/12/08 02:06:44;;;;;;;;;;;1.20;99.90;;;;;;5030258;28;20022;-76
2022/12/08 02:09:09;;;;;;;;;;;1.20;99.90;;;;;;5047919;28;19928;-76
2022/12/08 02:11:35;;;;;;;;;;;1.20;99.90;;;;;;5052681;28;19932;-76
2022/12/08 02:14:02;;;;;;;;;;;2.10;99.90;;;;;;5034457;28;19928;-77
2022/12/08 02:16:31;;;;;;;;;;;1.20;99.90;;;;;;5032830;28;19962;-77
2022/12/08 02:18:56;;;;;;;;;;;1.30;99.90;;;;;;5047010;28;19924;-76
2022/12/08 02:21:27;;;;;;;;;;;1.30;99.90;;;;;;5035160;28;20067;-76
2022/12/08 02:23:53;;;;;;;;;;;1.30;99.90;;;;;;5038131;28;19994;-76
2022/12/08 02:26:37;;;;;;;;;;;1.30;99.90;;;;;;5036444;28;19924;-77
2022/12/08 02:29:08;;;;;;;;;;;1.30;99.90;;;;;;5032552;28;20025;-76
2022/12/08 02:31:40;;;;;;;;;;;1.30;99.90;;;;;;5051208;28;19940;-76
2022/12/08 02:34:08;;;;;;;;;;;1.40;99.90;;;;;;5050873;28;19921;-77
2022/12/08 02:36:40;;;;;;;;;;;1.40;99.90;;;;;;5033648;28;19935;-77
2022/12/08 02:39:24;;;;;;;;;;;1.40;99.90;;;;;;5049450;28;19972;-76
2022/12/08 02:42:08;;;;;;;;;;;1.40;99.90;;;;;;5032467;28;19943;-76
2022/12/08 02:44:40;;;;;;;;;;;1.40;99.90;;;;;;5032966;28;19935;-76
2022/12/08 02:47:19;;;;;;;;;;;1.40;99.90;;;;;;5046765;28;20431;-76
2022/12/08 02:49:44;;;;;;;;;;;1.40;99.90;;;;;;5051081;28;19975;-76
2022/12/08 02:52:10;;;;;;;;;;;2.20;99.90;;;;;;5053914;28;20551;-77
2022/12/08 02:54:36;;;;;;;;;;;1.50;99.90;;;;;;5037964;28;19921;-76
2022/12/08 02:57:09;;;;;;;;;;;2.00;99.90;;;;;;5056890;28;19933;-77
2022/12/08 02:59:43;;;;;;;;;;;1.50;99.90;;;;;;5053270;28;20008;-75
2022/12/08 03:02:36;;;;;;;;;;;1.50;99.90;;;;;;5044995;28;20313;-76
2022/12/08 03:05:16;;;;;;;;;;;1.50;99.90;;;;;;5048444;28;19986;-76
2022/12/08 03:08:00;;;;;;;;;;;1.50;99.90;;;;;;5035419;28;19928;-77
2022/12/08 03:10:52;;;;;;;;;;;1.50;99.90;;;;;;5058360;28;19939;-76
2022/12/08 03:13:20;;;;;;;;;;;1.60;99.90;;;;;;5013580;28;19920;-75
2022/12/08 03:15:47;;;;;;;;;;;1.60;99.90;;;;;;5038908;28;19943;-76
2022/12/08 03:18:14;;;;;;;;;;;1.60;99.90;;;;;;5056542;28;19921;-76
2022/12/08 03:20:40;;;;;;;;;;;1.60;99.90;;;;;;5050407;28;19928;-76
2022/12/08 03:23:08;;;;;;;;;;;1.70;99.90;;;;;;5034346;28;19933;-75
2022/12/08 03:25:36;;;;;;;;;;;1.70;99.90;;;;;;5044263;28;20123;-76
2022/12/08 03:28:02;;;;;;;;;;;1.80;99.90;;;;;;5047446;28;19921;-76
2022/12/08 03:30:29;;;;;;;;;;;1.80;99.90;;;;;;5054163;28;20011;-76
2022/12/08 03:33:00;;;;;;;;;;;3.10;99.90;;;;;;5035083;28;20003;-76
2022/12/08 03:35:28;;;;;;;;;;;3.40;99.90;;;;;;5051262;28;19929;-76
2022/12/08 03:38:01;;;;;;;;;;;1.90;99.90;;;;;;5050299;28;19925;-76
2022/12/08 03:40:27;;;;;;;;;;;1.90;99.90;;;;;;5029048;28;19990;-76
2022/12/08 03:42:52;;;;;;;;;;;1.90;99.90;;;;;;5024831;28;19956;-76
2022/12/08 03:45:18;;;;;;;;;;;2.00;99.90;;;;;;5021131;28;19928;-77
2022/12/08 03:47:43;;;;;;;;;;;2.00;99.90;;;;;;5033592;28;19932;-76
2022/12/08 03:50:10;;;;;;;;;;;2.10;99.90;;;;;;5032837;28;20019;-77
2022/12/08 03:52:36;;;;;;;;;;;2.00;99.90;;;;;;5052574;28;19921;-76
2022/12/08 03:55:02;;;;;;;;;;;3.30;99.90;;;;;;5032080;28;19927;-76
2022/12/08 03:57:27;;;;;;;;;;;2.10;99.90;;;;;;5052023;28;19982;-77
2022/12/08 03:59:53;;;;;;;;;;;2.10;99.90;;;;;;5015121;28;20390;-77
2022/12/08 04:02:18;;;;;;;;;;;2.10;99.90;;;;;;5049461;28;19959;-76
2022/12/08 04:04:44;;;;;;;;;;;2.10;99.90;;;;;;5055706;28;19942;-76
2022/12/08 04:07:09;;;;;;;;;;;2.10;99.90;;;;;;5033977;28;19982;-77
2022/12/08 04:09:35;;;;;;;;;;;2.10;99.90;;;;;;5034404;28;19928;-76
2022/12/08 04:12:01;;;;;;;;;;;2.30;99.90;;;;;;5053112;28;20421;-73
2022/12/08 04:14:26;;;;;;;;;;;2.10;99.90;;;;;;5053491;28;19925;-76
2022/12/08 04:16:52;;;;;;;;;;;2.60;99.90;;;;;;5054031;28;19921;-76
2022/12/08 04:19:17;;;;;;;;;;;2.10;99.90;;;;;;5052453;28;20027;-77
2022/12/08 04:21:43;;;;;;;;;;;2.70;99.90;;;;;;5028835;28;19924;-76
2022/12/08 04:24:08;;;;;;;;;;;2.20;99.90;;;;;;5036849;28;19927;-77
2022/12/08 04:26:34;;;;;;;;;;;2.20;99.90;;;;;;5049430;28;19920;-77
2022/12/08 04:28:59;;;;;;;;;;;2.10;99.90;;;;;;5039817;28;19926;-76
2022/12/08 04:31:25;;;;;;;;;;;2.20;99.90;;;;;;5053460;28;20617;-76
2022/12/08 04:33:51;;;;;;;;;;;2.20;99.90;;;;;;5037799;28;19928;-77
2022/12/08 04:36:16;;;;;;;;;;;2.10;99.90;;;;;;5045638;28;20335;-77
2022/12/08 04:38:42;;;;;;;;;;;2.20;99.90;;;;;;5041099;28;19928;-77
2022/12/08 04:41:07;;;;;;;;;;;2.10;99.90;;;;;;5038692;28;19991;-77
2022/12/08 04:43:33;;;;;;;;;;;2.20;99.90;;;;;;5054505;28;19921;-76
2022/12/08 04:45:59;;;;;;;;;;;2.10;99.90;;;;;;5034487;28;19978;-77
2022/12/08 04:48:25;;;;;;;;;;;2.10;99.90;;;;;;5037510;28;19966;-76
2022/12/08 04:50:50;;;;;;;;;;;2.70;99.90;;;;;;5036524;28;19925;-77
2022/12/08 04:53:16;;;;;;;;;;;3.00;99.90;;;;;;5038140;28;19961;-76
2022/12/08 04:55:43;;;;;;;;;;;2.30;99.90;;;;;;5046319;28;19927;-76
2022/12/08 04:58:12;;;;;;;;;;;2.10;99.90;;;;;;5052724;28;20015;-77
2022/12/08 05:00:38;;;;;;;;;;;2.10;99.90;;;;;;5034742;28;20299;-76
2022/12/08 05:03:04;;;;;;;;;;;2.10;99.90;;;;;;5059953;28;19933;-77
2022/12/08 05:05:29;;;;;;;;;;;2.70;99.90;;;;;;5026226;28;20371;-76
2022/12/08 05:07:55;;;;;;;;;;;3.30;99.90;;;;;;5038367;28;19928;-76
2022/12/08 05:10:21;;;;;;;;;;;2.50;99.90;;;;;;5038274;28;19985;-76
2022/12/08 05:12:46;;;;;;;;;;;2.00;99.90;;;;;;5058825;28;19929;-77
2022/12/08 05:15:12;;;;;;;;;;;2.40;99.90;;;;;;5024251;28;19928;-77
2022/12/08 05:17:37;;;;;;;;;;;2.70;99.90;;;;;;5051533;28;20028;-77
2022/12/08 05:20:03;;;;;;;;;;;2.10;99.90;;;;;;5036564;28;20349;-77
2022/12/08 05:22:29;;;;;;;;;;;2.10;99.90;;;;;;5035468;28;19933;-76
2022/12/08 05:24:55;;;;;;;;;;;2.10;99.90;;;;;;5053859;28;19920;-76
2022/12/08 05:27:20;;;;;;;;;;;2.10;99.90;;;;;;5034116;28;19935;-77
2022/12/08 05:29:47;;;;;;;;;;;2.10;99.90;;;;;;5035324;28;19921;-78
2022/12/08 05:32:12;;;;;;;;;;;2.40;99.90;;;;;;5042681;28;19925;-76
2022/12/08 05:34:38;;;;;;;;;;;2.20;99.90;;;;;;5056496;28;19931;-77
2022/12/08 05:37:03;;;;;;;;;;;2.20;99.90;;;;;;5052474;28;19964;-76
2022/12/08 05:39:30;;;;;;;;;;;2.50;99.90;;;;;;5051006;28;19920;-77
2022/12/08 05:41:55;;;;;;;;;;;3.00;99.90;;;;;;5050282;28;19929;-77
2022/12/08 05:44:21;;;;;;;;;;;2.30;99.90;;;;;;5036858;28;19921;-77
2022/12/08 05:46:46;;;;;;;;;;;2.30;99.90;;;;;;5033629;28;20010;-77
2022/12/08 05:49:12;;;;;;;;;;;2.30;99.90;;;;;;5044991;28;19924;-77
2022/12/08 05:51:38;;;;;;;;;;;2.30;99.90;;;;;;5036159;28;19928;-76
2022/12/08 05:54:03;;;;;;;;;;;2.30;99.90;;;;;;5048721;28;20431;-77
2022/12/08 05:56:29;;;;;;;;;;;2.30;99.90;;;;;;5048426;28;19921;-76
2022/12/08 05:58:54;;;;;;;;;;;2.60;99.90;;;;;;5050721;28;19929;-76
2022/12/08 06:01:21;;;;;;;;;;;2.90;99.90;;;;;;5015515;28;20003;-76
2022/12/08 06:03:47;;;;;;;;;;;2.30;99.90;;;;;;5049067;28;20005;-77
2022/12/08 06:06:12;;;;;;;;;;;2.30;99.90;;;;;;5022696;28;19987;-76
2022/12/08 06:08:38;;;;;;;;;;;2.90;99.90;;;;;;5031231;28;19936;-76
2022/12/08 06:11:03;;;;;;;;;;;2.80;99.90;;;;;;5017853;28;20026;-77
2022/12/08 06:13:29;;;;;;;;;;;2.30;99.90;;;;;;5053213;28;20278;-77
2022/12/08 06:15:55;;;;;;;;;;;2.30;99.90;;;;;;5031008;28;19951;-76
2022/12/08 06:18:20;;;;;;;;;;;2.30;99.90;;;;;;5017888;28;20003;-76
2022/12/08 06:20:46;;;;;;;;;;;2.30;99.90;;;;;;5039631;28;19928;-76
2022/12/08 06:23:12;;;;;;;;;;;2.50;99.90;;;;;;5045504;28;19921;-76
2022/12/08 06:25:38;;;;;;;;;;;2.30;99.90;;;;;;5042597;28;19924;-77
2022/12/08 06:28:04;;;;;;;;;;;2.30;99.90;;;;;;5057756;28;19932;-76
2022/12/08 06:30:30;;;;;;;;;;;2.30;99.90;;;;;;5033505;28;19925;-76
2022/12/08 06:32:55;;;;;;;;;;;2.60;99.90;;;;;;5035049;28;19921;-77
2022/12/08 06:35:21;;;;;;;;;;;2.60;99.90;;;;;;5017910;28;20024;-77
2022/12/08 06:37:47;;;;;;;;;;;2.30;99.90;;;;;;5043762;28;19920;-76
2022/12/08 06:40:12;;;;;;;;;;;2.30;99.90;;;;;;5033053;28;19989;-76
2022/12/08 06:42:45;;;;;;;;;;;2.20;99.90;;;;;;5062160;28;19924;-76
2022/12/08 06:45:12;;;;;;;;;;;2.40;99.90;;;;;;5031828;28;19929;-76
2022/12/08 06:47:37;;;;;;;;;;;2.30;99.90;;;;;;5037305;28;20404;-76
2022/12/08 06:50:03;;;;;;;;;;;2.30;99.90;;;;;;5055383;28;19928;-76
2022/12/08 06:52:29;;;;;;;;;;;2.30;99.90;;;;;;5052715;28;19999;-76
2022/12/08 06:54:54;;;;;;;;;;;3.20;99.90;;;;;;5029856;28;19921;-76
2022/12/08 06:57:20;;;;;;;;;;;2.20;99.90;;;;;;5052627;28;19927;-76
2022/12/08 06:59:45;;;;;;;;;;;2.20;99.90;;;;;;5027936;28;19932;-76
2022/12/08 07:02:11;;;;;;;;;;;2.20;99.90;;;;;;5047225;28;19921;-76
2022/12/08 07:04:37;;;;;;;;;;;2.60;99.90;;;;;;5052311;28;19920;-77
2022/12/08 07:07:02;;;;;;;;;;;2.10;99.90;;;;;;5034140;28;20015;-76
2022/12/08 07:09:28;;;;;;;;;;;2.80;99.90;;;;;;5034919;28;19929;-76
2022/12/08 07:11:53;;;;;;;;;;;2.10;99.90;;;;;;5047799;28;19933;-77
2022/12/08 07:14:23;;;;;;;;;;;2.70;99.90;;;;;;5051896;28;19927;-76
2022/12/08 07:16:49;;;;;;;;;;;2.10;99.90;;;;;;5051431;28;20605;-76
2022/12/08 07:19:15;;;;;;;;;;;2.10;99.90;;;;;;5049690;28;19936;-76
2022/12/08 07:21:41;;;;;;;;;;;2.10;99.90;;;;;;5031184;28;19986;-76
2022/12/08 07:24:07;;;;;;;;;;;2.00;99.90;;;;;;5048759;28;20340;-76
2022/12/08 07:26:32;;;;;;;;;;;2.00;99.90;;;;;;5033012;28;19921;-77
2022/12/08 07:28:58;;;;;;;;;;;2.00;99.90;;;;;;5041468;28;19928;-77
2022/12/08 07:31:24;;;;;;;;;;;2.50;99.90;;;;;;5026691;28;19929;-77
2022/12/08 07:33:50;;;;;;;;;;;2.00;99.90;;;;;;5051185;28;19960;-76
2022/12/08 07:36:16;;;;;;;;;;;2.50;99.90;;;;;;5039052;28;19967;-76
2022/12/08 07:38:42;;;;;;;;;;;1.90;99.90;;;;;;5035659;28;19929;-77
2022/12/08 07:41:11;;;;;;;;;;;1.80;99.90;;;;;;5023637;28;19955;-76
2022/12/08 07:43:37;;;;;;;;;;;1.90;99.90;;;;;;5039689;28;19947;-77
2022/12/08 07:46:03;;;;;;;;;;;1.90;99.90;;;;;;5040080;28;20370;-77
2022/12/08 07:48:28;;;;;;;;;;;1.90;99.90;;;;;;5038872;28;19921;-77
2022/12/08 07:51:01;;;;;;;;;;;2.10;99.90;;;;;;5022616;28;20033;-77
2022/12/08 07:53:26;;;;;;;;;;;1.90;99.90;;;;;;5024918;28;19929;-76
2022/12/08 07:55:52;;;;;;;;;;;1.90;99.90;;;;;;5027524;28;19986;-76
2022/12/08 07:58:18;;;;;;;;;;;2.50;99.90;;;;;;5025873;28;19931;-76
2022/12/08 08:00:43;;;;;;;;;;;1.90;99.90;;;;;;5027236;28;20007;-77
2022/12/08 08:03:10;;;;;;;;;;;1.90;99.90;;;;;;5042611;28;19936;-77
2022/12/08 08:05:35;;;;;;;;;;;1.90;99.90;;;;;;5026160;28;19975;-77
2022/12/08 08:08:01;;;;;;;;;;;2.00;99.90;;;;;;5041417;28;19924;-77
2022/12/08 08:10:26;;;;;;;;;;;1.90;99.90;;;;;;5027044;28;20256;-77
2022/12/08 08:12:52;;;;;;;;;;;1.90;99.90;;;;;;5043075;28;20069;-76
2022/12/08 08:15:19;;;;;;;;;;;1.90;99.90;;;;;;5044980;28;19982;-77
2022/12/08 08:17:48;;;;;;;;;;;2.00;99.90;;;;;;5033623;28;20008;-77
2022/12/08 08:20:13;;;;;;;;;;;1.80;99.90;;;;;;5052457;28;19920;-78
2022/12/08 08:22:39;;;;;;;;;;;1.80;99.90;;;;;;5060035;28;19946;-79
2022/12/08 08:25:04;;;;;;;;;;;3.10;99.90;;;;;;5040804;28;19921;-78
2022/12/08 08:27:30;;;;;;;;;;;1.80;99.90;;;;;;5036065;28;20016;-78
2022/12/08 08:29:55;;;;;;;;;;;2.40;99.90;;;;;;5065471;28;19920;-78
2022/12/08 08:32:21;;;;;;;;;;;2.00;99.90;;;;;;5045056;28;19920;-77
2022/12/08 08:34:47;;;;;;;;;;;2.50;99.90;;;;;;5054257;28;19921;-81
2022/12/08 08:37:12;;;;;;;;;;;3.00;99.90;;;;;;5057938;28;19928;-82
2022/12/08 08:39:38;;;;;;;;;;;1.80;99.90;;;;;;5037799;28;19925;-81
2022/12/08 08:42:03;;;;;;;;;;;1.80;99.90;;;;;;5046197;28;19961;-80
2022/12/08 08:44:29;;;;;;;;;;;1.80;99.90;;;;;;5059277;28;19921;-81
2022/12/08 08:46:54;;;;;;;;;;;3.30;99.90;;;;;;5075203;28;20413;-78
2022/12/08 08:49:20;;;;;;;;;;;1.90;99.90;;;;;;5056209;28;20002;-78
2022/12/08 08:51:46;;;;;;;;;;;2.40;99.90;;;;;;5047765;28;20278;-79
2022/12/08 08:54:11;;;;;;;;;;;1.90;99.90;;;;;;5038955;28;19920;-79
2022/12/08 08:56:37;;;;;;;;;;;1.90;99.90;;;;;;5036691;28;19953;-79
2022/12/08 08:59:03;;;;;;;;;;;2.10;99.90;;;;;;5027005;28;19928;-80
2022/12/08 09:01:28;;;;;;;;;;;1.90;99.90;;;;;;5037824;28;19920;-80
2022/12/08 09:03:54;;;;;;;;;;;1.90;99.90;;;;;;5052542;28;19924;-80
2022/12/08 09:06:20;;;;;;;;;;;2.30;99.90;;;;;;5061214;28;19928;-79
2022/12/08 09:08:46;;;;;;;;;;;2.00;99.90;;;;;;5035721;28;19929;-78
2022/12/08 09:11:12;;;;;;;;;;;2.00;99.90;;;;;;5052314;28;20376;-79
2022/12/08 09:13:37;;;;;;;;;;;2.60;99.90;;;;;;5060033;28;20062;-80
2022/12/08 09:16:04;;;;;;;;;;;2.40;99.90;;;;;;5061770;28;19927;-79
2022/12/08 09:18:30;;;;;;;;;;;2.00;99.90;;;;;;5064188;28;20267;-79
2022/12/08 09:20:55;;;;;;;;;;;2.00;99.90;;;;;;5040576;28;20000;-79
2022/12/08 09:23:21;;;;;;;;;;;2.30;99.90;;;;;;5047447;28;19947;-79
2022/12/08 09:25:47;;;;;;;;;;;2.00;99.90;;;;;;5062728;28;19954;-79
2022/12/08 09:28:13;;;;;;;;;;;1.90;99.90;;;;;;5041219;28;19921;-76
2022/12/08 09:30:38;;;;;;;;;;;1.90;99.90;;;;;;5035620;28;19928;-77
2022/12/08 09:33:04;;;;;;;;;;;1.90;99.90;;;;;;5038550;28;19932;-77
2022/12/08 09:35:30;;;;;;;;;;;1.90;99.90;;;;;;5038576;28;19921;-77
2022/12/08 09:37:55;;;;;;;;;;;1.90;99.90;;;;;;5024389;28;20275;-78
2022/12/08 09:40:22;;;;;;;;;;;1.90;99.90;;;;;;5042499;28;19928;-77
2022/12/08 09:42:57;;;;;;;;;;;2.80;99.90;;;;;;5059307;28;20378;-76
2022/12/08 09:45:25;;;;;;;;;;;1.90;99.90;;;;;;5058561;28;19967;-77
2022/12/08 09:48:06;;;;;;;;;;;1.90;99.90;;;;;;5053963;28;19928;-77
2022/12/08 09:50:39;;;;;;;;;;;1.90;99.90;;;;;;5058047;28;19932;-76
2022/12/08 09:53:09;;;;;;;;;;;1.90;99.90;;;;;;5058293;28;19928;-77
2022/12/08 09:55:37;;;;;;;;;;;2.60;99.90;;;;;;5055543;28;19994;-77
2022/12/08 09:58:04;;;;;;;;;;;1.90;99.90;;;;;;5057846;28;19928;-77
2022/12/08 10:00:29;;;;;;;;;;;1.90;99.90;;;;;;5032445;28;19933;-77
2022/12/08 10:02:56;;;;;;;;;;;2.00;99.90;;;;;;5051924;28;19921;-78
2022/12/08 10:05:22;;;;;;;;;;;1.90;99.90;;;;;;5055888;28;19967;-76
2022/12/08 10:07:51;;;;;;;;;;;1.90;99.90;;;;;;5038228;28;19977;-76
2022/12/08 10:10:22;;;;;;;;;;;1.90;99.90;;;;;;5039064;28;19971;-77
2022/12/08 10:13:07;;;;;;;;;;;1.90;99.90;;;;;;5040164;28;19981;-77
2022/12/08 10:15:39;;;;;;;;;;;1.90;99.90;;;;;;5054488;28;19921;-77
2022/12/08 10:18:26;;;;;;;;;;;1.90;99.90;;;;;;5032125;28;19929;-76
2022/12/08 10:20:51;;;;;;;;;;;2.00;99.90;;;;;;5053018;28;19928;-77
2022/12/08 10:23:30;;;;;;;;;;;2.00;99.90;;;;;;5040499;28;20301;-77
2022/12/08 10:26:01;;;;;;;;;;;2.00;99.90;;;;;;5059802;28;19925;-75
2022/12/08 10:28:26;;;;;;;;;;;2.00;99.90;;;;;;5035623;28;20405;-77
2022/12/08 10:30:52;;;;;;;;;;;2.30;99.90;;;;;;5036413;28;19967;-77
2022/12/08 10:33:19;;;;;;;;;;;2.00;99.90;;;;;;5037980;28;20278;-77
2022/12/08 10:35:49;;;;;;;;;;;2.10;99.90;;;;;;5052100;28;19936;-77
2022/12/08 10:38:19;;;;;;;;;;;1.90;99.90;;;;;;5053229;28;19931;-77
2022/12/08 10:40:45;;;;;;;;;;;2.00;99.90;;;;;;5054918;28;20392;-77
2022/12/08 10:43:17;;;;;;;;;;;1.90;99.90;;;;;;5036477;28;19925;-77
2022/12/08 10:45:43;;;;;;;;;;;1.90;99.90;;;;;;5047122;28;19920;-78
2022/12/08 10:48:14;;;;;;;;;;;1.90;99.90;;;;;;5037996;28;19990;-77
2022/12/08 10:50:44;;;;;;;;;;;1.90;99.90;;;;;;5045800;28;19932;-77
2022/12/08 10:53:12;;;;;;;;;;;1.80;99.90;;;;;;5059497;28;20597;-77
2022/12/08 10:55:48;;;;;;;;;;;1.80;99.90;;;;;;5030759;28;19982;-77
2022/12/08 10:58:34;;;;;;;;;;;1.80;99.90;;;;;;5052918;28;19929;-77
2022/12/08 11:01:03;;;;;;;;;;;1.70;99.90;;;;;;5051760;28;19967;-77
2022/12/08 11:03:34;;;;;;;;;;;1.70;99.90;;;;;;5059481;28;19928;-77
2022/12/08 11:06:08;;;;;;;;;;;1.70;99.90;;;;;;5051884;28;19928;-77
2022/12/08 11:08:42;;;;;;;;;;;1.60;99.90;;;;;;5043154;28;20401;-77
2022/12/08 11:11:08;;;;;;;;;;;1.70;99.90;;;;;;5036252;28;19979;-77
2022/12/08 11:13:39;;;;;;;;;;;2.20;99.90;;;;;;5035227;28;19976;-76
2022/12/08 11:16:05;;;;;;;;;;;1.70;99.90;;;;;;5052907;28;19925;-76
2022/12/08 11:18:41;;;;;;;;;;;1.60;99.90;;;;;;5040121;28;19939;-77
2022/12/08 11:21:17;;;;;;;;;;;1.70;99.90;;;;;;5051400;28;19921;-77
2022/12/08 11:23:47;;;;;;;;;;;1.70;99.90;;;;;;5053300;28;20336;-78
2022/12/08 11:26:34;;;;;;;;;;;1.70;99.90;;;;;;5065597;28;20290;-78
2022/12/08 11:28:59;;;;;;;;;;;1.80;99.90;;;;;;5058475;28;19986;-78
2022/12/08 11:31:33;;;;;;;;;;;1.90;99.90;;;;;;5054132;28;20026;-78
2022/12/08 11:34:00;;;;;;;;;;;1.90;99.90;;;;;;5055665;28;19927;-78
2022/12/08 11:36:29;;;;;;;;;;;2.00;99.90;;;;;;5039886;28;19928;-78
2022/12/08 11:38:56;;;;;;;;;;;2.10;99.90;;;;;;5053576;28;19973;-79
2022/12/08 11:41:25;;;;;;;;;;;2.10;99.90;;;;;;5059645;28;19943;-78
2022/12/08 11:43:57;;;;;;;;;;;2.00;99.90;;;;;;5060134;28;20377;-77
2022/12/08 11:46:31;;;;;;;;;;;2.00;99.90;;;;;;5060661;28;19920;-78
2022/12/08 11:49:05;;;;;;;;;;;2.00;99.90;;;;;;5042582;28;19921;-79
2022/12/08 11:51:32;;;;;;;;;;;2.00;99.90;;;;;;5057165;28;19972;-78
2022/12/08 11:54:16;;;;;;;;;;;2.10;99.90;;;;;;5056095;28;20009;-79
2022/12/08 11:56:50;;;;;;;;;;;2.00;99.90;;;;;;5041854;28;19921;-79
2022/12/08 11:59:40;;;;;;;;;;;2.00;99.90;;;;;;5055920;28;19928;-79
2022/12/08 12:02:10;;;;;;;;;;;2.00;99.90;;;;;;5041028;28;19928;-79
2022/12/08 12:04:42;;;;;;;;;;;2.00;99.90;;;;;;5053960;28;19995;-79
2022/12/08 12:07:26;;;;;;;;;;;1.90;99.90;;;;;;5044687;28;20025;-80
2022/12/08 12:09:55;;;;;;;;;;;1.90;99.90;;;;;;5045697;28;20401;-79
2022/12/08 12:12:20;;;;;;;;;;;1.90;99.90;;;;;;5038603;28;19928;-79
2022/12/08 12:15:05;;;;;;;;;;;1.90;99.90;;;;;;5053479;28;19921;-78
2022/12/08 12:17:39;;;;;;;;;;;2.00;99.90;;;;;;5053506;28;19928;-78
2022/12/08 12:20:13;;;;;;;;;;;2.10;99.90;;;;;;5053520;28;19928;-79
2022/12/08 12:22:38;;;;;;;;;;;2.30;99.90;;;;;;5053873;28;19928;-78
2022/12/08 12:25:04;;;;;;;;;;;2.40;99.90;;;;;;5063669;28;19931;-79
2022/12/08 12:27:40;;;;;;;;;;;2.50;99.90;;;;;;5040499;28;20377;-79
2022/12/08 12:30:08;;;;;;;;;;;2.70;99.90;;;;;;5028056;28;20341;-79
2022/12/08 12:32:45;;;;;;;;;;;2.80;99.90;;;;;;5059454;28;19921;-79
2022/12/08 12:35:17;;;;;;;;;;;3.00;99.90;;;;;;5036879;28;19928;-79
2022/12/08 12:37:43;;;;;;;;;;;3.20;99.90;;;;;;5053743;28;19921;-79
2022/12/08 12:40:19;;;;;;;;;;;3.20;99.90;;;;;;5048428;28;19928;-79
2022/12/08 12:42:48;;;;;;;;;;;3.30;99.90;;;;;;5060130;28;20069;-79
2022/12/08 12:45:16;;;;;;;;;;;3.50;99.90;;;;;;5056528;28;19921;-79
2022/12/08 12:48:02;;;;;;;;;;;3.50;99.90;;;;;;5063811;28;19944;-78
2022/12/08 12:50:30;;;;;;;;;;;3.50;99.90;;;;;;5040645;28;20412;-79
2022/12/08 12:52:58;;;;;;;;;;;3.40;99.90;;;;;;5054876;28;19927;-79
2022/12/08 12:55:24;;;;;;;;;;;3.40;99.90;;;;;;5035567;28;19942;-80
2022/12/08 12:57:52;;;;;;;;;;;3.30;99.90;;;;;;5056624;28;19927;-79
2022/12/08 13:00:18;;;;;;;;;;;3.50;99.90;;;;;;5051480;28;19924;-79
2022/12/08 13:02:44;;;;;;;;;;;3.30;99.90;;;;;;5056626;28;20672;-79
2022/12/08 13:05:09;;;;;;;;;;;3.30;99.90;;;;;;5028282;28;19971;-78
2022/12/08 13:07:49;;;;;;;;;;;3.30;99.90;;;;;;5035061;28;19921;-79
2022/12/08 13:10:18;;;;;;;;;;;3.40;99.90;;;;;;5045936;28;19929;-78
2022/12/08 13:12:45;;;;;;;;;;;3.30;99.90;;;;;;5040847;28;19995;-79
2022/12/08 13:15:16;;;;;;;;;;;3.30;99.90;;;;;;5021129;28;20507;-78
2022/12/08 13:17:43;;;;;;;;;;;3.20;99.90;;;;;;5022929;28;19968;-78
2022/12/08 13:20:17;;;;;;;;;;;3.30;99.90;;;;;;5021751;28;19925;-79
2022/12/08 13:22:46;;;;;;;;;;;3.30;99.90;;;;;;5038852;28;19940;-79
2022/12/08 13:25:30;;;;;;;;;;;3.20;99.90;;;;;;5022998;28;19932;-78
2022/12/08 13:28:07;;;;;;;;;;;3.20;99.90;;;;;;5022130;28;19920;-80
2022/12/08 13:30:39;;;;;;;;;;;3.20;99.90;;;;;;5037445;28;19928;-78
2022/12/08 13:33:09;;;;;;;;;;;3.20;99.90;;;;;;5039375;28;19934;-80
2022/12/08 13:35:38;;;;;;;;;;;3.20;99.90;;;;;;5038884;28;19925;-77
2022/12/08 13:38:05;;;;;;;;;;;3.30;99.90;;;;;;5022814;28;19927;-78
2022/12/08 13:40:33;;;;;;;;;;;3.20;99.90;;;;;;5040120;28;20336;-78
2022/12/08 13:43:09;;;;;;;;;;;3.70;99.90;;;;;;5033264;28;19979;-77
2022/12/08 13:45:36;;;;;;;;;;;3.00;99.90;;;;;;5041048;28;20285;-77
2022/12/08 13:48:10;;;;;;;;;;;2.90;99.90;;;;;;5039958;28;19971;-78
2022/12/08 13:50:39;;;;;;;;;;;2.90;99.90;;;;;;5025328;28;19932;-78
2022/12/08 13:53:17;;;;;;;;;;;2.90;99.90;;;;;;5022269;28;20467;-76
2022/12/08 13:55:45;;;;;;;;;;;2.80;99.90;;;;;;5038189;28;19924;-78
2022/12/08 13:58:30;;;;;;;;;;;3.90;99.90;;;;;;5040765;28;21234;-78
2022/12/08 14:00:56;;;;;;;;;;;1.60;99.90;;;;;;5028208;28;19921;-78
2022/12/08 14:03:21;;;;;;;;;;;3.50;99.90;;;;;;5041200;28;20400;-77
2022/12/08 14:05:47;;;;;;;;;;;2.90;99.90;;;;;;5025997;28;20601;-77
2022/12/08 14:08:24;;;;;;;;;;;2.90;99.90;;;;;;5042268;28;19924;-77
2022/12/08 14:10:53;;;;;;;;;;;2.90;99.90;;;;;;5046898;28;19964;-78
2022/12/08 14:13:18;;;;;;;;;;;2.80;99.90;;;;;;5041335;28;19921;-78
2022/12/08 14:15:44;;;;;;;;;;;2.90;99.90;;;;;;5060086;28;19928;-78
2022/12/08 14:18:26;;;;;;;;;;;2.70;99.90;;;;;;5034221;28;19927;-76
2022/12/08 14:21:05;;;;;;;;;;;2.70;99.90;;;;;;5034012;28;19928;-77
2022/12/08 14:23:35;;;;;;;;;;;2.60;99.90;;;;;;5062214;28;20291;-78
2022/12/08 14:26:02;;;;;;;;;;;2.50;99.90;;;;;;5038866;28;19924;-78
2022/12/08 14:28:27;;;;;;;;;;;2.80;99.90;;;;;;5055795;28;19974;-78
2022/12/08 14:30:54;;;;;;;;;;;2.40;99.90;;;;;;5041132;28;20344;-77
2022/12/08 14:33:19;;;;;;;;;;;2.30;99.90;;;;;;5060655;28;20289;-78
2022/12/08 14:35:49;;;;;;;;;;;2.30;99.90;;;;;;5053066;28;19920;-78
2022/12/08 14:38:16;;;;;;;;;;;2.30;99.90;;;;;;5063857;28;20366;-78
2022/12/08 14:40:43;;;;;;;;;;;2.20;99.90;;;;;;5046886;28;20090;-78